sensor_id;sensor_type;location;lat;lon;timestamp;temperature;humidity
69418;DHT22;56610;48.872;2.400;2023-08-21T00:00:21;25.20;99.90
69418;DHT22;56610;48.872;2.400;2023-08-21T00:02:47;25.20;99.90
69418;DHT22;56610;48.872;2.400;2023-08-21T00:05:12;25.10;99.90
69418;DHT22;56610;48.872;2.400;2023-08-21T00:07:38;25.10;99.90
69418;DHT22;56610;48.872;2.400;2023-08-21T00:10:04;25.10;99.90
69418;DHT22;56610;48.872;2.400;2023-08-21T00:12:30;25.10;99.90
69418;DHT22;56610;48.872;2.400;2023-08-21T00:14:55;25.10;99.90
69418;DHT22;56610;48.872;2.400;2023-08-21T00:17:21;25.20;99.90
69418;DHT22;56610;48.872;2.400;2023-08-21T00:19:46;25.10;99.90
69418;DHT22;56610;48.872;2.400;2023-08-21T00:22:12;25.10;99.90
69418;DHT22;56610;48.872;2.400;2023-08-21T00:24:38;25.10;99.90
69418;DHT22;56610;48.872;2.400;2023-08-21T00:27:03;25.20;99.90
69418;DHT22;56610;48.872;2.400;2023-08-21T00:29:29;25.00;99.90
69418;DHT22;56610;48.872;2.400;2023-08-21T00:31:55;25.00;99.90
69418;DHT22;56610;48.872;2.400;2023-08-21T00:34:20;25.00;99.90
69418;DHT22;56610;48.872;2.400;2023-08-21T00:36:46;25.00;99.90
69418;DHT22;56610;48.872;2.400;2023-08-21T00:39:12;25.00;99.90
69418;DHT22;56610;48.872;2.400;2023-08-21T00:41:38;25.10;99.90
69418;DHT22;56610;48.872;2.400;2023-08-21T00:44:03;25.00;99.90
69418;DHT22;56610;48.872;2.400;2023-08-21T00:46:30;25.00;99.90
69418;DHT22;56610;48.872;2.400;2023-08-21T00:48:56;25.00;99.90
69418;DHT22;56610;48.872;2.400;2023-08-21T00:51:21;25.00;99.90
69418;DHT22;56610;48.872;2.400;2023-08-21T00:53:47;25.00;99.90
69418;DHT22;56610;48.872;2.400;2023-08-21T00:56:13;24.80;99.90
69418;DHT22;56610;48.872;2.400;2023-08-21T00:58:39;24.80;99.90
69418;DHT22;56610;48.872;2.400;2023-08-21T01:01:05;24.80;99.90
69418;DHT22;56610;48.872;2.400;2023-08-21T01:03:30;24.70;99.90
69418;DHT22;56610;48.872;2.400;2023-08-21T01:05:56;24.80;99.90
69418;DHT22;56610;48.872;2.400;2023-08-21T01:14:07;24.70;99.90
69418;DHT22;56610;48.872;2.400;2023-08-21T01:16:37;24.70;99.90
69418;DHT22;56610;48.872;2.400;2023-08-21T01:19:03;24.80;99.90
69418;DHT22;56610;48.872;2.400;2023-08-21T01:21:33;24.70;99.90
69418;DHT22;56610;48.872;2.400;2023-08-21T01:23:59;24.80;99.90
69418;DHT22;56610;48.872;2.400;2023-08-21T01:26:24;24.80;99.90
69418;DHT22;56610;48.872;2.400;2023-08-21T01:28:50;24.80;99.90
69418;DHT22;56610;48.872;2.400;2023-08-21T01:31:26;24.80;99.90
69418;DHT22;56610;48.872;2.400;2023-08-21T01:33:55;24.60;99.90
69418;DHT22;56610;48.872;2.400;2023-08-21T01:36:23;24.50;99.90
69418;DHT22;56610;48.872;2.400;2023-08-21T01:38:49;24.50;99.90
69418;DHT22;56610;48.872;2.400;2023-08-21T01:41:15;24.40;99.90
69418;DHT22;56610;48.872;2.400;2023-08-21T01:43:41;24.40;99.90
69418;DHT22;56610;48.872;2.400;2023-08-21T01:46:06;24.40;99.90
69418;DHT22;56610;48.872;2.400;2023-08-21T01:48:32;24.50;99.90
69418;DHT22;56610;48.872;2.400;2023-08-21T01:51:01;24.30;99.90
69418;DHT22;56610;48.872;2.400;2023-08-21T01:53:26;24.40;99.90
69418;DHT22;56610;48.872;2.400;2023-08-21T01:55:52;24.30;99.90
69418;DHT22;56610;48.872;2.400;2023-08-21T01:58:17;24.30;99.90
69418;DHT22;56610;48.872;2.400;2023-08-21T02:00:48;24.30;99.90
69418;DHT22;56610;48.872;2.400;2023-08-21T02:03:14;24.40;99.90
69418;DHT22;56610;48.872;2.400;2023-08-21T02:05:40;24.60;99.90
69418;DHT22;56610;48.872;2.400;2023-08-21T02:08:11;24.70;99.90
69418;DHT22;56610;48.872;2.400;2023-08-21T02:10:37;24.60;99.90
69418;DHT22;56610;48.872;2.400;2023-08-21T02:13:03;24.50;99.90
69418;DHT22;56610;48.872;2.400;2023-08-21T02:15:28;24.50;99.90
69418;DHT22;56610;48.872;2.400;2023-08-21T02:17:54;24.50;99.90
69418;DHT22;56610;48.872;2.400;2023-08-21T02:20:20;24.30;99.90
69418;DHT22;56610;48.872;2.400;2023-08-21T02:22:46;24.40;99.90
69418;DHT22;56610;48.872;2.400;2023-08-21T02:25:11;24.50;99.90
69418;DHT22;56610;48.872;2.400;2023-08-21T02:27:37;24.40;99.90
69418;DHT22;56610;48.872;2.400;2023-08-21T02:30:02;24.20;99.90
69418;DHT22;56610;48.872;2.400;2023-08-21T02:32:28;24.30;99.90
69418;DHT22;56610;48.872;2.400;2023-08-21T02:34:54;24.20;99.90
69418;DHT22;56610;48.872;2.400;2023-08-21T02:37:19;24.20;99.90
69418;DHT22;56610;48.872;2.400;2023-08-21T02:39:45;24.30;99.90
69418;DHT22;56610;48.872;2.400;2023-08-21T02:42:11;24.10;99.90
69418;DHT22;56610;48.872;2.400;2023-08-21T02:44:36;24.10;99.90
69418;DHT22;56610;48.872;2.400;2023-08-21T02:47:02;24.20;99.90
69418;DHT22;56610;48.872;2.400;2023-08-21T02:49:27;24.10;99.90
69418;DHT22;56610;48.872;2.400;2023-08-21T02:51:53;24.10;99.90
69418;DHT22;56610;48.872;2.400;2023-08-21T02:54:18;24.10;99.90
69418;DHT22;56610;48.872;2.400;2023-08-21T02:56:44;24.10;99.90
69418;DHT22;56610;48.872;2.400;2023-08-21T02:59:10;24.10;99.90
69418;DHT22;56610;48.872;2.400;2023-08-21T03:01:35;24.10;99.90
69418;DHT22;56610;48.872;2.400;2023-08-21T03:04:01;24.10;99.90
69418;DHT22;56610;48.872;2.400;2023-08-21T03:06:27;24.20;99.90
69418;DHT22;56610;48.872;2.400;2023-08-21T03:08:52;24.20;99.90
69418;DHT22;56610;48.872;2.400;2023-08-21T03:11:18;24.20;99.90
69418;DHT22;56610;48.872;2.400;2023-08-21T03:13:43;24.20;99.90
69418;DHT22;56610;48.872;2.400;2023-08-21T03:16:09;24.30;99.90
69418;DHT22;56610;48.872;2.400;2023-08-21T03:18:54;24.20;99.90
69418;DHT22;56610;48.872;2.400;2023-08-21T03:21:21;24.30;99.90
69418;DHT22;56610;48.872;2.400;2023-08-21T03:23:50;24.30;99.90
69418;DHT22;56610;48.872;2.400;2023-08-21T03:26:16;24.40;99.90
69418;DHT22;56610;48.872;2.400;2023-08-21T03:28:41;24.30;99.90
69418;DHT22;56610;48.872;2.400;2023-08-21T03:31:07;24.30;99.90
69418;DHT22;56610;48.872;2.400;2023-08-21T03:33:32;24.30;99.90
69418;DHT22;56610;48.872;2.400;2023-08-21T03:35:58;24.30;99.90
69418;DHT22;56610;48.872;2.400;2023-08-21T03:38:24;24.20;99.90
69418;DHT22;56610;48.872;2.400;2023-08-21T03:40:49;24.20;99.90
69418;DHT22;56610;48.872;2.400;2023-08-21T03:43:15;24.30;99.90
69418;DHT22;56610;48.872;2.400;2023-08-21T03:45:40;24.30;99.90
69418;DHT22;56610;48.872;2.400;2023-08-21T03:48:06;24.20;99.90
69418;DHT22;56610;48.872;2.400;2023-08-21T03:50:31;24.40;99.90
69418;DHT22;56610;48.872;2.400;2023-08-21T03:52:57;24.30;99.90
69418;DHT22;56610;48.872;2.400;2023-08-21T03:55:22;24.20;99.90
69418;DHT22;56610;48.872;2.400;2023-08-21T03:57:48;24.30;99.90
69418;DHT22;56610;48.872;2.400;2023-08-21T04:00:14;24.30;99.90
69418;DHT22;56610;48.872;2.400;2023-08-21T04:02:40;24.30;99.90
69418;DHT22;56610;48.872;2.400;2023-08-21T04:05:06;24.30;99.90
69418;DHT22;56610;48.872;2.400;2023-08-21T04:07:31;24.30;99.90
69418;DHT22;56610;48.872;2.400;2023-08-21T04:09:57;24.30;99.90
69418;DHT22;56610;48.872;2.400;2023-08-21T04:12:22;24.20;99.90
69418;DHT22;56610;48.872;2.400;2023-08-21T04:14:48;24.10;99.90
69418;DHT22;56610;48.872;2.400;2023-08-21T04:17:14;24.10;99.90
69418;DHT22;56610;48.872;2.400;2023-08-21T04:19:39;24.10;99.90
69418;DHT22;56610;48.872;2.400;2023-08-21T04:22:06;24.00;99.90
69418;DHT22;56610;48.872;2.400;2023-08-21T04:24:32;24.10;99.90
69418;DHT22;56610;48.872;2.400;2023-08-21T04:26:57;24.00;99.90
69418;DHT22;56610;48.872;2.400;2023-08-21T04:29:23;24.10;99.90
69418;DHT22;56610;48.872;2.400;2023-08-21T04:31:49;24.10;99.90
69418;DHT22;56610;48.872;2.400;2023-08-21T04:34:16;24.00;99.90
69418;DHT22;56610;48.872;2.400;2023-08-21T04:36:43;23.90;99.90
69418;DHT22;56610;48.872;2.400;2023-08-21T04:39:08;23.80;99.90
69418;DHT22;56610;48.872;2.400;2023-08-21T04:41:35;23.70;99.90
69418;DHT22;56610;48.872;2.400;2023-08-21T04:44:00;23.70;99.90
69418;DHT22;56610;48.872;2.400;2023-08-21T04:46:27;23.70;99.90
69418;DHT22;56610;48.872;2.400;2023-08-21T04:48:55;23.70;99.90
69418;DHT22;56610;48.872;2.400;2023-08-21T04:51:20;23.80;99.90
69418;DHT22;56610;48.872;2.400;2023-08-21T04:53:46;23.90;99.90
69418;DHT22;56610;48.872;2.400;2023-08-21T04:56:11;23.80;99.90
69418;DHT22;56610;48.872;2.400;2023-08-21T04:58:37;23.90;99.90
69418;DHT22;56610;48.872;2.400;2023-08-21T05:01:04;23.90;99.90
69418;DHT22;56610;48.872;2.400;2023-08-21T05:03:30;23.80;99.90
69418;DHT22;56610;48.872;2.400;2023-08-21T05:05:56;23.80;99.90
69418;DHT22;56610;48.872;2.400;2023-08-21T05:08:23;23.80;99.90
69418;DHT22;56610;48.872;2.400;2023-08-21T05:10:57;23.90;99.90
69418;DHT22;56610;48.872;2.400;2023-08-21T05:13:23;23.80;99.90
69418;DHT22;56610;48.872;2.400;2023-08-21T05:15:56;23.70;99.90
69418;DHT22;56610;48.872;2.400;2023-08-21T05:18:22;23.60;99.90
69418;DHT22;56610;48.872;2.400;2023-08-21T05:20:48;23.60;99.90
69418;DHT22;56610;48.872;2.400;2023-08-21T05:23:14;23.70;99.90
69418;DHT22;56610;48.872;2.400;2023-08-21T05:25:40;23.70;99.90
69418;DHT22;56610;48.872;2.400;2023-08-21T05:28:06;23.60;99.90
69418;DHT22;56610;48.872;2.400;2023-08-21T05:30:32;23.70;99.90
69418;DHT22;56610;48.872;2.400;2023-08-21T05:32:58;23.60;99.90
69418;DHT22;56610;48.872;2.400;2023-08-21T05:35:23;23.70;99.90
69418;DHT22;56610;48.872;2.400;2023-08-21T05:37:49;23.60;99.90
69418;DHT22;56610;48.872;2.400;2023-08-21T05:40:15;23.50;99.90
69418;DHT22;56610;48.872;2.400;2023-08-21T05:42:40;23.70;99.90
69418;DHT22;56610;48.872;2.400;2023-08-21T05:45:06;23.70;99.90
69418;DHT22;56610;48.872;2.400;2023-08-21T05:47:32;23.60;99.90
69418;DHT22;56610;48.872;2.400;2023-08-21T05:49:57;23.60;99.90
69418;DHT22;56610;48.872;2.400;2023-08-21T05:52:23;23.50;99.90
69418;DHT22;56610;48.872;2.400;2023-08-21T05:54:49;23.70;99.90
69418;DHT22;56610;48.872;2.400;2023-08-21T05:57:14;23.60;99.90
69418;DHT22;56610;48.872;2.400;2023-08-21T05:59:44;23.50;99.90
69418;DHT22;56610;48.872;2.400;2023-08-21T06:02:11;23.70;99.90
69418;DHT22;56610;48.872;2.400;2023-08-21T06:04:41;23.70;99.90
69418;DHT22;56610;48.872;2.400;2023-08-21T06:07:07;23.70;99.90
69418;DHT22;56610;48.872;2.400;2023-08-21T06:09:33;23.60;99.90
69418;DHT22;56610;48.872;2.400;2023-08-21T06:12:08;23.50;99.90
69418;DHT22;56610;48.872;2.400;2023-08-21T06:14:34;23.40;99.90
69418;DHT22;56610;48.872;2.400;2023-08-21T06:17:02;23.30;99.90
69418;DHT22;56610;48.872;2.400;2023-08-21T06:19:28;23.40;99.90
69418;DHT22;56610;48.872;2.400;2023-08-21T06:21:55;23.50;99.90
69418;DHT22;56610;48.872;2.400;2023-08-21T06:24:20;23.50;99.90
69418;DHT22;56610;48.872;2.400;2023-08-21T06:26:46;23.50;99.90
69418;DHT22;56610;48.872;2.400;2023-08-21T06:29:12;23.50;99.90
69418;DHT22;56610;48.872;2.400;2023-08-21T06:31:37;23.50;99.90
69418;DHT22;56610;48.872;2.400;2023-08-21T06:34:03;23.50;99.90
69418;DHT22;56610;48.872;2.400;2023-08-21T06:36:28;23.80;99.90
69418;DHT22;56610;48.872;2.400;2023-08-21T06:38:55;23.70;99.90
69418;DHT22;56610;48.872;2.400;2023-08-21T06:41:21;23.50;99.90
69418;DHT22;56610;48.872;2.400;2023-08-21T06:43:46;23.60;99.90
69418;DHT22;56610;48.872;2.400;2023-08-21T06:46:12;23.50;99.90
69418;DHT22;56610;48.872;2.400;2023-08-21T06:48:39;23.50;99.90
69418;DHT22;56610;48.872;2.400;2023-08-21T06:51:08;23.70;99.90
69418;DHT22;56610;48.872;2.400;2023-08-21T06:53:34;23.90;99.90
69418;DHT22;56610;48.872;2.400;2023-08-21T06:56:00;23.90;99.90
69418;DHT22;56610;48.872;2.400;2023-08-21T06:58:25;23.60;99.90
69418;DHT22;56610;48.872;2.400;2023-08-21T07:00:53;23.60;99.90
69418;DHT22;56610;48.872;2.400;2023-08-21T07:03:19;23.70;99.90
69418;DHT22;56610;48.872;2.400;2023-08-21T07:05:56;23.80;99.90
69418;DHT22;56610;48.872;2.400;2023-08-21T07:08:22;23.70;99.90
69418;DHT22;56610;48.872;2.400;2023-08-21T07:10:48;23.70;99.90
69418;DHT22;56610;48.872;2.400;2023-08-21T07:13:14;23.70;99.90
69418;DHT22;56610;48.872;2.400;2023-08-21T07:15:39;23.80;99.90
69418;DHT22;56610;48.872;2.400;2023-08-21T07:18:25;23.80;99.90
69418;DHT22;56610;48.872;2.400;2023-08-21T07:20:54;23.80;99.90
69418;DHT22;56610;48.872;2.400;2023-08-21T07:23:19;24.00;99.90
69418;DHT22;56610;48.872;2.400;2023-08-21T07:25:45;24.00;99.90
69418;DHT22;56610;48.872;2.400;2023-08-21T07:28:11;24.10;99.90
69418;DHT22;56610;48.872;2.400;2023-08-21T07:30:37;24.00;99.90
69418;DHT22;56610;48.872;2.400;2023-08-21T07:33:04;24.00;99.90
69418;DHT22;56610;48.872;2.400;2023-08-21T07:35:31;24.10;99.90
69418;DHT22;56610;48.872;2.400;2023-08-21T07:37:56;24.10;99.90
69418;DHT22;56610;48.872;2.400;2023-08-21T07:40:22;24.30;99.90
69418;DHT22;56610;48.872;2.400;2023-08-21T07:42:48;24.30;99.90
69418;DHT22;56610;48.872;2.400;2023-08-21T07:45:13;24.40;99.90
69418;DHT22;56610;48.872;2.400;2023-08-21T07:47:39;24.50;99.90
69418;DHT22;56610;48.872;2.400;2023-08-21T07:50:06;24.50;99.90
69418;DHT22;56610;48.872;2.400;2023-08-21T07:52:32;24.50;99.90
69418;DHT22;56610;48.872;2.400;2023-08-21T07:54:58;24.50;99.90
69418;DHT22;56610;48.872;2.400;2023-08-21T07:57:27;24.50;99.90
69418;DHT22;56610;48.872;2.400;2023-08-21T07:59:56;24.40;99.90
69418;DHT22;56610;48.872;2.400;2023-08-21T08:02:23;24.50;99.90
69418;DHT22;56610;48.872;2.400;2023-08-21T08:04:48;24.30;99.90
69418;DHT22;56610;48.872;2.400;2023-08-21T08:07:14;24.40;99.90
69418;DHT22;56610;48.872;2.400;2023-08-21T08:09:40;24.30;99.90
69418;DHT22;56610;48.872;2.400;2023-08-21T08:12:06;24.30;99.90
69418;DHT22;56610;48.872;2.400;2023-08-21T08:14:31;24.40;99.90
69418;DHT22;56610;48.872;2.400;2023-08-21T08:16:57;24.40;99.90
69418;DHT22;56610;48.872;2.400;2023-08-21T08:19:22;24.50;99.90
69418;DHT22;56610;48.872;2.400;2023-08-21T08:21:48;24.40;99.90
69418;DHT22;56610;48.872;2.400;2023-08-21T08:24:14;24.50;99.90
69418;DHT22;56610;48.872;2.400;2023-08-21T08:26:39;24.50;99.90
69418;DHT22;56610;48.872;2.400;2023-08-21T08:29:07;24.60;99.90
69418;DHT22;56610;48.872;2.400;2023-08-21T08:31:32;24.80;99.90
69418;DHT22;56610;48.872;2.400;2023-08-21T08:33:58;24.80;99.90
69418;DHT22;56610;48.872;2.400;2023-08-21T08:36:23;24.80;99.90
69418;DHT22;56610;48.872;2.400;2023-08-21T08:38:49;24.80;99.90
69418;DHT22;56610;48.872;2.400;2023-08-21T08:41:34;24.90;99.90
69418;DHT22;56610;48.872;2.400;2023-08-21T08:44:02;24.90;99.90
69418;DHT22;56610;48.872;2.400;2023-08-21T08:46:29;24.90;99.90
69418;DHT22;56610;48.872;2.400;2023-08-21T08:48:56;24.90;99.90
69418;DHT22;56610;48.872;2.400;2023-08-21T08:51:27;24.80;99.90
69418;DHT22;56610;48.872;2.400;2023-08-21T08:53:53;24.90;99.90
69418;DHT22;56610;48.872;2.400;2023-08-21T08:56:19;24.90;99.90
69418;DHT22;56610;48.872;2.400;2023-08-21T08:58:46;24.90;99.90
69418;DHT22;56610;48.872;2.400;2023-08-21T09:01:12;25.00;99.90
69418;DHT22;56610;48.872;2.400;2023-08-21T09:03:37;25.10;99.90
69418;DHT22;56610;48.872;2.400;2023-08-21T09:06:03;25.10;99.90
69418;DHT22;56610;48.872;2.400;2023-08-21T09:08:29;25.10;99.90
69418;DHT22;56610;48.872;2.400;2023-08-21T09:10:55;25.00;99.90
69418;DHT22;56610;48.872;2.400;2023-08-21T09:13:21;25.10;99.90
69418;DHT22;56610;48.872;2.400;2023-08-21T09:15:48;25.30;99.90
69418;DHT22;56610;48.872;2.400;2023-08-21T09:18:14;25.40;99.90
69418;DHT22;56610;48.872;2.400;2023-08-21T09:20:43;25.40;99.90
69418;DHT22;56610;48.872;2.400;2023-08-21T09:23:17;25.60;99.90
69418;DHT22;56610;48.872;2.400;2023-08-21T09:25:47;25.50;99.90
69418;DHT22;56610;48.872;2.400;2023-08-21T09:28:13;25.60;99.90
69418;DHT22;56610;48.872;2.400;2023-08-21T09:30:47;25.60;99.90
69418;DHT22;56610;48.872;2.400;2023-08-21T09:33:13;25.60;99.90
69418;DHT22;56610;48.872;2.400;2023-08-21T09:35:38;25.60;99.90
69418;DHT22;56610;48.872;2.400;2023-08-21T09:38:07;25.70;99.90
69418;DHT22;56610;48.872;2.400;2023-08-21T09:40:33;25.70;99.90
69418;DHT22;56610;48.872;2.400;2023-08-21T09:42:58;25.70;99.90
69418;DHT22;56610;48.872;2.400;2023-08-21T09:45:26;25.80;99.90
69418;DHT22;56610;48.872;2.400;2023-08-21T09:47:53;25.80;99.90
69418;DHT22;56610;48.872;2.400;2023-08-21T09:50:19;25.80;99.90
69418;DHT22;56610;48.872;2.400;2023-08-21T09:52:47;25.80;99.90
69418;DHT22;56610;48.872;2.400;2023-08-21T09:55:14;25.80;99.90
69418;DHT22;56610;48.872;2.400;2023-08-21T09:57:41;25.80;99.90
69418;DHT22;56610;48.872;2.400;2023-08-21T10:00:07;25.80;99.90
69418;DHT22;56610;48.872;2.400;2023-08-21T10:02:49;25.80;99.90
69418;DHT22;56610;48.872;2.400;2023-08-21T10:05:19;25.80;99.90
69418;DHT22;56610;48.872;2.400;2023-08-21T10:07:49;25.90;99.90
69418;DHT22;56610;48.872;2.400;2023-08-21T10:10:15;25.80;99.90
69418;DHT22;56610;48.872;2.400;2023-08-21T10:12:41;25.80;99.90
69418;DHT22;56610;48.872;2.400;2023-08-21T10:15:08;25.80;99.90
69418;DHT22;56610;48.872;2.400;2023-08-21T10:17:37;25.80;99.90
69418;DHT22;56610;48.872;2.400;2023-08-21T10:20:07;25.90;99.90
69418;DHT22;56610;48.872;2.400;2023-08-21T10:25:24;26.00;99.90
69418;DHT22;56610;48.872;2.400;2023-08-21T10:27:55;26.20;99.90
69418;DHT22;56610;48.872;2.400;2023-08-21T10:30:28;26.30;99.90
69418;DHT22;56610;48.872;2.400;2023-08-21T10:32:57;26.30;99.90
69418;DHT22;56610;48.872;2.400;2023-08-21T10:35:29;26.30;99.90
69418;DHT22;56610;48.872;2.400;2023-08-21T10:43:46;26.70;99.90
69418;DHT22;56610;48.872;2.400;2023-08-21T10:46:12;26.70;99.90
69418;DHT22;56610;48.872;2.400;2023-08-21T10:48:39;26.70;99.90
69418;DHT22;56610;48.872;2.400;2023-08-21T10:51:06;27.00;99.90
69418;DHT22;56610;48.872;2.400;2023-08-21T10:53:33;27.00;99.90
69418;DHT22;56610;48.872;2.400;2023-08-21T10:56:05;27.10;99.90
69418;DHT22;56610;48.872;2.400;2023-08-21T10:58:44;27.00;99.90
69418;DHT22;56610;48.872;2.400;2023-08-21T11:01:15;27.10;99.90
69418;DHT22;56610;48.872;2.400;2023-08-21T11:03:41;27.50;99.90
69418;DHT22;56610;48.872;2.400;2023-08-21T11:06:10;27.70;99.90
69418;DHT22;56610;48.872;2.400;2023-08-21T11:08:36;28.00;99.90
69418;DHT22;56610;48.872;2.400;2023-08-21T11:11:04;28.40;99.90
69418;DHT22;56610;48.872;2.400;2023-08-21T11:13:30;28.80;99.90
69418;DHT22;56610;48.872;2.400;2023-08-21T11:18:36;29.40;99.90
69418;DHT22;56610;48.872;2.400;2023-08-21T11:21:12;29.60;99.90
69418;DHT22;56610;48.872;2.400;2023-08-21T11:23:39;29.80;99.90
69418;DHT22;56610;48.872;2.400;2023-08-21T11:26:06;29.90;99.90
69418;DHT22;56610;48.872;2.400;2023-08-21T11:28:32;30.00;99.90
69418;DHT22;56610;48.872;2.400;2023-08-21T11:30:59;30.10;99.40
69418;DHT22;56610;48.872;2.400;2023-08-21T11:33:26;30.00;99.30
69418;DHT22;56610;48.872;2.400;2023-08-21T11:35:52;30.20;98.80
69418;DHT22;56610;48.872;2.400;2023-08-21T11:38:23;30.30;98.80
69418;DHT22;56610;48.872;2.400;2023-08-21T11:43:18;30.40;98.90
69418;DHT22;56610;48.872;2.400;2023-08-21T11:45:46;30.40;99.10
69418;DHT22;56610;48.872;2.400;2023-08-21T11:48:11;30.50;97.90
69418;DHT22;56610;48.872;2.400;2023-08-21T11:50:38;30.40;98.10
69418;DHT22;56610;48.872;2.400;2023-08-21T11:53:04;30.70;97.90
69418;DHT22;56610;48.872;2.400;2023-08-21T11:55:31;30.70;97.30
69418;DHT22;56610;48.872;2.400;2023-08-21T11:57:56;30.80;97.40
69418;DHT22;56610;48.872;2.400;2023-08-21T12:00:28;30.80;96.80
69418;DHT22;56610;48.872;2.400;2023-08-21T12:02:56;30.90;96.80
69418;DHT22;56610;48.872;2.400;2023-08-21T12:05:22;30.70;96.60
69418;DHT22;56610;48.872;2.400;2023-08-21T12:07:48;30.80;96.40
69418;DHT22;56610;48.872;2.400;2023-08-21T12:10:13;31.00;97.20
69418;DHT22;56610;48.872;2.400;2023-08-21T12:12:39;31.00;96.40
69418;DHT22;56610;48.872;2.400;2023-08-21T12:15:05;31.00;96.30
69418;DHT22;56610;48.872;2.400;2023-08-21T12:17:31;31.30;96.40
69418;DHT22;56610;48.872;2.400;2023-08-21T12:19:56;31.60;96.10
69418;DHT22;56610;48.872;2.400;2023-08-21T12:22:22;31.90;95.50
69418;DHT22;56610;48.872;2.400;2023-08-21T12:24:47;31.90;94.70
69418;DHT22;56610;48.872;2.400;2023-08-21T12:27:13;32.00;95.40
69418;DHT22;56610;48.872;2.400;2023-08-21T12:29:39;32.30;95.00
69418;DHT22;56610;48.872;2.400;2023-08-21T12:32:05;32.60;95.40
69418;DHT22;56610;48.872;2.400;2023-08-21T12:34:30;32.90;94.70
69418;DHT22;56610;48.872;2.400;2023-08-21T12:36:56;33.10;94.10
69418;DHT22;56610;48.872;2.400;2023-08-21T12:39:21;33.20;93.80
69418;DHT22;56610;48.872;2.400;2023-08-21T12:41:47;33.50;93.50
69418;DHT22;56610;48.872;2.400;2023-08-21T12:44:14;33.80;93.30
69418;DHT22;56610;48.872;2.400;2023-08-21T12:46:40;34.00;93.10
69418;DHT22;56610;48.872;2.400;2023-08-21T12:49:06;34.20;92.90
69418;DHT22;56610;48.872;2.400;2023-08-21T12:51:32;34.30;92.60
69418;DHT22;56610;48.872;2.400;2023-08-21T12:53:58;34.40;92.70
69418;DHT22;56610;48.872;2.400;2023-08-21T12:56:24;34.50;92.00
69418;DHT22;56610;48.872;2.400;2023-08-21T12:58:49;34.80;91.70
69418;DHT22;56610;48.872;2.400;2023-08-21T13:01:15;35.10;91.40
69418;DHT22;56610;48.872;2.400;2023-08-21T13:03:44;35.20;91.00
69418;DHT22;56610;48.872;2.400;2023-08-21T13:06:11;35.30;90.90
69418;DHT22;56610;48.872;2.400;2023-08-21T13:08:37;35.20;91.10
69418;DHT22;56610;48.872;2.400;2023-08-21T13:11:03;35.40;90.90
69418;DHT22;56610;48.872;2.400;2023-08-21T13:13:30;35.40;90.60
69418;DHT22;56610;48.872;2.400;2023-08-21T13:15:55;35.60;89.90
69418;DHT22;56610;48.872;2.400;2023-08-21T13:18:21;35.60;89.80
69418;DHT22;56610;48.872;2.400;2023-08-21T13:20:47;35.50;90.50
69418;DHT22;56610;48.872;2.400;2023-08-21T13:23:12;35.70;89.90
69418;DHT22;56610;48.872;2.400;2023-08-21T13:25:38;35.80;89.30
69418;DHT22;56610;48.872;2.400;2023-08-21T13:28:03;35.80;89.10
69418;DHT22;56610;48.872;2.400;2023-08-21T13:30:30;35.80;88.70
69418;DHT22;56610;48.872;2.400;2023-08-21T13:32:56;35.80;88.30
69418;DHT22;56610;48.872;2.400;2023-08-21T13:35:22;35.80;88.40
69418;DHT22;56610;48.872;2.400;2023-08-21T13:37:48;35.90;88.40
69418;DHT22;56610;48.872;2.400;2023-08-21T13:40:14;35.90;87.80
69418;DHT22;56610;48.872;2.400;2023-08-21T13:42:41;36.00;87.50
69418;DHT22;56610;48.872;2.400;2023-08-21T13:45:10;36.10;86.90
69418;DHT22;56610;48.872;2.400;2023-08-21T13:47:41;36.10;87.30
69418;DHT22;56610;48.872;2.400;2023-08-21T13:50:08;36.10;87.20
69418;DHT22;56610;48.872;2.400;2023-08-21T13:52:34;36.00;87.20
69418;DHT22;56610;48.872;2.400;2023-08-21T13:55:00;36.30;87.10
69418;DHT22;56610;48.872;2.400;2023-08-21T13:57:26;36.60;86.60
69418;DHT22;56610;48.872;2.400;2023-08-21T13:59:52;36.50;85.50
69418;DHT22;56610;48.872;2.400;2023-08-21T14:02:18;36.40;85.00
69418;DHT22;56610;48.872;2.400;2023-08-21T14:04:45;36.50;86.30
69418;DHT22;56610;48.872;2.400;2023-08-21T14:07:11;36.60;84.90
69418;DHT22;56610;48.872;2.400;2023-08-21T14:09:37;36.70;84.80
69418;DHT22;56610;48.872;2.400;2023-08-21T14:12:03;36.60;84.30
69418;DHT22;56610;48.872;2.400;2023-08-21T14:14:29;36.70;83.30
69418;DHT22;56610;48.872;2.400;2023-08-21T14:16:57;36.50;83.80
69418;DHT22;56610;48.872;2.400;2023-08-21T14:19:24;36.40;83.70
69418;DHT22;56610;48.872;2.400;2023-08-21T14:21:49;36.30;85.10
69418;DHT22;56610;48.872;2.400;2023-08-21T14:24:15;36.40;83.20
69418;DHT22;56610;48.872;2.400;2023-08-21T14:26:41;36.20;84.00
69418;DHT22;56610;48.872;2.400;2023-08-21T14:29:06;36.00;84.40
69418;DHT22;56610;48.872;2.400;2023-08-21T14:31:32;36.10;85.00
69418;DHT22;56610;48.872;2.400;2023-08-21T14:33:57;36.00;83.40
69418;DHT22;56610;48.872;2.400;2023-08-21T14:36:23;35.70;84.30
69418;DHT22;56610;48.872;2.400;2023-08-21T14:38:49;35.70;83.80
69418;DHT22;56610;48.872;2.400;2023-08-21T14:41:16;35.50;84.10
69418;DHT22;56610;48.872;2.400;2023-08-21T14:43:43;35.40;85.50
69418;DHT22;56610;48.872;2.400;2023-08-21T14:46:08;35.40;85.40
69418;DHT22;56610;48.872;2.400;2023-08-21T14:48:34;35.60;84.50
69418;DHT22;56610;48.872;2.400;2023-08-21T14:51:00;35.50;85.00
69418;DHT22;56610;48.872;2.400;2023-08-21T14:53:25;35.60;84.00
69418;DHT22;56610;48.872;2.400;2023-08-21T14:55:51;35.60;84.30
69418;DHT22;56610;48.872;2.400;2023-08-21T14:58:16;35.80;84.50
69418;DHT22;56610;48.872;2.400;2023-08-21T15:00:42;35.90;83.90
69418;DHT22;56610;48.872;2.400;2023-08-21T15:03:07;36.00;83.40
69418;DHT22;56610;48.872;2.400;2023-08-21T15:05:33;36.00;83.00
69418;DHT22;56610;48.872;2.400;2023-08-21T15:07:58;36.00;82.80
69418;DHT22;56610;48.872;2.400;2023-08-21T15:10:27;35.70;83.00
69418;DHT22;56610;48.872;2.400;2023-08-21T15:12:52;35.70;83.20
69418;DHT22;56610;48.872;2.400;2023-08-21T15:15:18;35.80;83.70
69418;DHT22;56610;48.872;2.400;2023-08-21T15:17:46;36.00;83.40
69418;DHT22;56610;48.872;2.400;2023-08-21T15:20:11;35.90;83.10
69418;DHT22;56610;48.872;2.400;2023-08-21T15:22:39;36.00;83.60
69418;DHT22;56610;48.872;2.400;2023-08-21T15:25:06;36.10;83.20
69418;DHT22;56610;48.872;2.400;2023-08-21T15:27:31;36.00;82.70
69418;DHT22;56610;48.872;2.400;2023-08-21T15:29:57;36.00;82.80
69418;DHT22;56610;48.872;2.400;2023-08-21T15:32:22;35.90;82.90
69418;DHT22;56610;48.872;2.400;2023-08-21T15:34:48;35.70;82.20
69418;DHT22;56610;48.872;2.400;2023-08-21T15:37:13;35.80;82.50
69418;DHT22;56610;48.872;2.400;2023-08-21T15:39:39;35.80;82.50
69418;DHT22;56610;48.872;2.400;2023-08-21T15:42:05;35.80;82.70
69418;DHT22;56610;48.872;2.400;2023-08-21T15:44:30;35.80;82.00